createdAt,value
2018-02-05T00:00:47.214Z,18.67
2018-02-05T00:03:14.763Z,24.00
2018-02-05T00:05:42.363Z,21.50
2018-02-05T00:08:10.308Z,23.23
2018-02-05T00:10:37.854Z,19.80
2018-02-05T00:13:05.527Z,20.20
2018-02-05T00:15:33.133Z,19.37
2018-02-05T00:18:00.712Z,17.17
2018-02-05T00:20:29.116Z,18.17
2018-02-05T00:22:56.665Z,17.50
2018-02-05T00:25:24.810Z,16.80
2018-02-05T00:27:52.420Z,17.23
2018-02-05T00:30:20.075Z,17.00
2018-02-05T00:32:48.549Z,13.33
2018-02-05T00:35:16.087Z,16.70
2018-02-05T00:37:44.099Z,13.80
2018-02-05T00:40:11.639Z,15.03
2018-02-05T00:42:39.244Z,15.20
2018-02-05T00:45:06.868Z,17.83
2018-02-05T00:47:34.438Z,13.90
2018-02-05T00:50:02.027Z,14.67
2018-02-05T00:52:30.093Z,14.27
2018-02-05T00:54:57.707Z,13.33
2018-02-05T00:57:25.308Z,10.23
2018-02-05T00:59:53.410Z,13.80
2018-02-05T01:02:21.012Z,12.70
2018-02-05T01:04:48.574Z,13.30
2018-02-05T01:07:16.194Z,10.63
2018-02-05T01:09:43.735Z,12.63
2018-02-05T01:12:11.316Z,12.50
2018-02-05T01:14:39.359Z,10.63
2018-02-05T01:17:06.955Z,11.87
2018-02-05T01:19:34.534Z,12.70
2018-02-05T01:22:02.432Z,12.00
2018-02-05T01:24:30.014Z,12.30
2018-02-05T01:26:57.986Z,15.10
2018-02-05T01:29:25.582Z,14.03
2018-02-05T01:31:53.176Z,14.47
2018-02-05T01:34:20.775Z,13.67
2018-02-05T01:36:48.314Z,14.20
2018-02-05T01:39:15.895Z,12.53
2018-02-05T01:41:43.457Z,13.23
2018-02-05T01:44:11.058Z,13.20
2018-02-05T01:46:38.650Z,11.90
2018-02-05T01:49:06.243Z,15.23
2018-02-05T01:51:33.791Z,12.13
2018-02-05T01:54:01.858Z,13.37
2018-02-05T01:56:29.799Z,12.97
2018-02-05T01:58:57.385Z,13.73
2018-02-05T02:01:24.934Z,13.33
2018-02-05T02:03:53.040Z,13.00
2018-02-05T02:06:21.654Z,12.23
2018-02-05T02:08:49.223Z,11.10
2018-02-05T02:11:16.804Z,13.63
2018-02-05T02:13:44.391Z,11.87
2018-02-05T02:16:11.926Z,11.20
2018-02-05T02:18:39.508Z,12.63
2018-02-05T02:21:07.046Z,13.00
2018-02-05T02:23:34.643Z,12.60
2018-02-05T02:26:02.204Z,11.93
2018-02-05T02:28:29.774Z,12.90
2018-02-05T02:30:58.017Z,11.57
2018-02-05T02:33:25.612Z,11.70
2018-02-05T02:35:53.208Z,11.53
2018-02-05T02:38:20.888Z,13.33
2018-02-05T02:40:48.469Z,11.53
2018-02-05T02:43:16.063Z,11.03
2018-02-05T02:45:43.622Z,13.33
2018-02-05T02:48:11.626Z,11.63
2018-02-05T02:50:39.227Z,12.80
2018-02-05T02:53:07.184Z,11.50
2018-02-05T02:55:34.782Z,11.83
2018-02-05T02:58:02.764Z,14.00
2018-02-05T03:00:30.376Z,12.47
2018-02-05T03:02:57.974Z,17.93
2018-02-05T03:05:25.903Z,16.60
2018-02-05T03:07:53.850Z,18.03
2018-02-05T03:10:21.435Z,19.57
2018-02-05T03:12:48.988Z,21.10
2018-02-05T03:15:16.565Z,18.03
2018-02-05T03:17:44.176Z,17.70
2018-02-05T03:20:11.760Z,19.47
2018-02-05T03:22:39.370Z,18.37
2018-02-05T03:25:07.206Z,16.53
2018-02-05T03:27:34.770Z,17.70
2018-02-05T03:30:02.375Z,14.63
2018-02-05T03:32:29.937Z,17.07
2018-02-05T03:34:57.518Z,16.03
2018-02-05T03:37:25.295Z,15.03
2018-02-05T03:39:52.888Z,14.50
2018-02-05T03:42:20.435Z,17.47
2018-02-05T03:44:48.024Z,14.37
2018-02-05T03:47:15.578Z,13.47
2018-02-05T03:49:43.495Z,16.17
2018-02-05T03:52:11.048Z,14.70
2018-02-05T03:54:38.771Z,13.20
2018-02-05T03:57:06.340Z,14.03
2018-02-05T03:59:33.893Z,13.30
2018-02-05T04:02:01.491Z,12.67
2018-02-05T04:04:29.634Z,12.03
2018-02-05T04:07:02.778Z,12.90
2018-02-05T04:09:30.333Z,15.33
2018-02-05T04:11:57.883Z,14.47
2018-02-05T04:14:26.020Z,12.80
2018-02-05T04:16:53.985Z,11.60
2018-02-05T04:19:21.591Z,13.70
2018-02-05T04:21:49.133Z,12.47
2018-02-05T04:24:16.698Z,14.50
2018-02-05T04:26:44.307Z,18.47
2018-02-05T04:29:11.891Z,12.73
2018-02-05T04:31:40.220Z,12.47
2018-02-05T04:34:07.780Z,13.97
2018-02-05T04:36:35.374Z,20.00
2018-02-05T04:39:02.937Z,12.73
2018-02-05T04:41:30.496Z,13.17
2018-02-05T04:43:58.083Z,14.23
2018-02-05T04:46:25.634Z,12.80
2018-02-05T04:48:53.218Z,14.63
2018-02-05T04:51:20.806Z,14.23
2018-02-05T04:53:48.360Z,15.10
2018-02-05T04:56:15.968Z,13.63
2018-02-05T04:58:44.101Z,13.90
2018-02-05T05:01:12.330Z,15.43
2018-02-05T05:03:39.934Z,15.73
2018-02-05T05:06:07.494Z,13.40
2018-02-05T05:08:35.096Z,12.73
2018-02-05T05:11:02.641Z,17.77
2018-02-05T05:13:30.232Z,14.97
2018-02-05T05:15:58.108Z,19.30
2018-02-05T05:18:25.698Z,16.20
2018-02-05T05:20:53.276Z,18.93
2018-02-05T05:23:20.858Z,18.83
2018-02-05T05:25:48.415Z,18.83
2018-02-05T05:28:16.390Z,20.30
2018-02-05T05:30:43.940Z,20.23
2018-02-05T05:33:11.535Z,23.55
2018-02-05T05:35:39.915Z,28.87
2018-02-05T05:38:07.491Z,41.40
2018-02-05T05:40:35.051Z,39.47
2018-02-05T05:43:02.656Z,42.73
2018-02-05T05:45:30.202Z,40.17
2018-02-05T05:47:57.758Z,77.62
2018-02-05T05:50:26.717Z,56.30
2018-02-05T05:52:54.270Z,52.80
2018-02-05T05:55:21.950Z,48.35
2018-02-05T05:57:49.552Z,47.93
2018-02-05T06:00:17.153Z,44.83
2018-02-05T06:02:44.776Z,44.97
2018-02-05T06:05:12.380Z,34.53
2018-02-05T06:07:39.948Z,45.83
2018-02-05T06:10:07.559Z,42.37
2018-02-05T06:12:35.157Z,46.60
2018-02-05T06:15:02.773Z,31.33
2018-02-05T06:17:31.134Z,37.60
2018-02-05T06:19:58.926Z,40.93
2018-02-05T06:22:26.511Z,29.83
2018-02-05T06:24:54.072Z,29.40
2018-02-05T06:27:21.764Z,30.63
2018-02-05T06:29:49.849Z,27.03
2018-02-05T06:32:17.449Z,27.07
2018-02-05T06:34:45.029Z,25.10
2018-02-05T06:37:12.597Z,23.40
2018-02-05T06:39:40.203Z,30.48
2018-02-05T06:42:07.751Z,24.20
2018-02-05T06:44:35.358Z,24.30
2018-02-05T06:47:02.985Z,23.87
2018-02-05T06:49:31.054Z,27.65
2018-02-05T06:52:10.604Z,32.70
2018-02-05T06:54:49.842Z,31.90
2018-02-05T06:57:17.416Z,40.72
2018-02-05T06:59:45.268Z,34.70
2018-02-05T07:02:12.860Z,55.05
2018-02-05T07:04:40.407Z,74.23
2018-02-05T07:07:08.248Z,46.40
2018-02-05T07:09:35.816Z,41.33
2018-02-05T07:12:03.776Z,31.40
2018-02-05T07:14:31.401Z,29.75
2018-02-05T07:16:58.962Z,37.67
2018-02-05T07:19:26.915Z,36.13
2018-02-05T07:21:54.647Z,34.47
2018-02-05T07:24:23.206Z,33.07
2018-02-05T07:26:51.157Z,28.03
2018-02-05T07:29:18.759Z,27.25
2018-02-05T07:31:47.059Z,22.53
2018-02-05T07:34:16.436Z,25.20
2018-02-05T07:36:45.022Z,25.67
2018-02-05T07:39:13.376Z,29.57
2018-02-05T07:41:40.966Z,40.53
2018-02-05T07:44:08.574Z,52.83
2018-02-05T07:46:37.139Z,38.00
2018-02-05T07:49:04.860Z,30.60
2018-02-05T07:51:33.169Z,26.70
2018-02-05T07:54:00.766Z,28.33
2018-02-05T07:56:28.762Z,29.10
2018-02-05T07:58:56.798Z,21.57
2018-02-05T08:01:24.581Z,25.87
2018-02-05T08:03:52.305Z,17.40
2018-02-05T08:06:20.477Z,18.87
2018-02-05T08:08:48.340Z,18.30
2018-02-05T08:11:15.901Z,16.23
2018-02-05T08:13:43.462Z,27.37
2018-02-05T08:16:11.059Z,19.87
2018-02-05T08:18:38.642Z,32.23
2018-02-05T08:21:07.027Z,24.17
2018-02-05T08:23:34.584Z,25.85
2018-02-05T08:26:02.191Z,18.13
2018-02-05T08:28:29.790Z,16.87
2018-02-05T08:30:57.749Z,16.85
2018-02-05T08:33:25.356Z,18.40
2018-02-05T08:35:53.580Z,18.30
2018-02-05T08:38:21.148Z,18.90
2018-02-05T08:40:48.805Z,16.53
2018-02-05T08:43:16.572Z,16.60
2018-02-05T08:45:44.605Z,15.40
2018-02-05T08:48:12.151Z,14.27
2018-02-05T08:50:40.358Z,17.97
2018-02-05T08:53:07.985Z,11.93
2018-02-05T08:55:37.074Z,14.33
2018-02-05T08:58:05.442Z,13.62
2018-02-05T09:00:33.235Z,13.82
2018-02-05T09:03:01.711Z,13.98
2018-02-05T09:05:30.250Z,20.40
2018-02-05T09:07:58.871Z,14.77
2018-02-05T09:10:27.823Z,17.23
2018-02-05T09:12:55.921Z,13.97
2018-02-05T09:15:23.505Z,16.80
2018-02-05T09:17:51.365Z,15.90
2018-02-05T09:20:19.227Z,24.33
2018-02-05T09:22:46.804Z,16.57
2018-02-05T09:25:14.775Z,23.10
2018-02-05T09:27:43.421Z,19.93
2018-02-05T09:30:11.015Z,19.60
2018-02-05T09:32:38.781Z,16.23
2018-02-05T09:35:07.967Z,17.23
2018-02-05T09:37:35.564Z,18.47
2018-02-05T09:40:03.389Z,19.30
2018-02-05T09:42:31.034Z,17.70
2018-02-05T09:44:58.634Z,21.40
2018-02-05T09:47:26.371Z,18.93
2018-02-05T09:49:54.271Z,17.30
2018-02-05T09:52:21.937Z,19.27
2018-02-05T09:54:49.699Z,18.10
2018-02-05T09:57:17.448Z,17.57
2018-02-05T09:59:45.229Z,19.37
2018-02-05T10:02:13.744Z,17.87
2018-02-05T10:04:41.411Z,18.53
2018-02-05T10:07:09.128Z,18.47
2018-02-05T10:09:37.201Z,18.03
2018-02-05T10:12:04.773Z,17.37
2018-02-05T10:14:32.383Z,20.23
2018-02-05T10:17:00.176Z,19.80
2018-02-05T10:19:28.399Z,17.42
2018-02-05T10:21:56.005Z,19.47
2018-02-05T10:24:23.604Z,19.73
2018-02-05T10:26:51.159Z,19.10
2018-02-05T10:29:19.022Z,18.23
2018-02-05T10:31:46.576Z,18.63
2018-02-05T10:34:14.866Z,20.12
2018-02-05T10:36:42.758Z,18.43
2018-02-05T10:39:10.367Z,17.83
2018-02-05T10:41:38.557Z,16.13
2018-02-05T10:44:06.199Z,19.30
2018-02-05T10:46:33.760Z,18.40
2018-02-05T10:49:01.413Z,17.90
2018-02-05T10:51:29.627Z,19.77
2018-02-05T10:53:59.132Z,17.10
2018-02-05T10:56:26.834Z,19.90
2018-02-05T10:58:54.875Z,18.30
2018-02-05T11:01:22.780Z,18.03
2018-02-05T11:03:50.392Z,24.37
2018-02-05T11:06:18.664Z,20.57
2018-02-05T11:08:46.243Z,17.10
2018-02-05T11:11:13.839Z,22.30
2018-02-05T11:13:42.744Z,19.77
2018-02-05T11:16:10.291Z,19.27
2018-02-05T11:18:38.726Z,19.05
2018-02-05T11:21:06.336Z,20.77
2018-02-05T11:23:33.949Z,16.30
2018-02-05T11:26:02.187Z,15.00
2018-02-05T11:28:29.990Z,17.90
2018-02-05T11:30:57.564Z,15.43
2018-02-05T11:33:25.755Z,13.10
2018-02-05T11:35:54.220Z,12.47
2018-02-05T11:38:22.102Z,14.85
2018-02-05T11:40:49.656Z,15.93
2018-02-05T11:43:17.421Z,11.07
2018-02-05T11:45:45.012Z,10.93
2018-02-05T11:48:12.676Z,11.75
2018-02-05T11:50:40.268Z,12.80
2018-02-05T11:53:08.138Z,16.35
2018-02-05T11:55:36.070Z,10.90
2018-02-05T11:58:03.721Z,15.93
2018-02-05T12:00:31.570Z,13.20
2018-02-05T12:03:00.012Z,11.07
2018-02-05T12:05:28.075Z,15.60
2018-02-05T12:07:56.067Z,11.70
2018-02-05T12:10:24.113Z,11.27
2018-02-05T12:12:52.507Z,12.90
2018-02-05T12:15:20.106Z,17.40
2018-02-05T12:17:48.359Z,13.20
2018-02-05T12:20:16.213Z,10.33
2018-02-05T12:22:44.763Z,16.70
2018-02-05T12:25:12.614Z,14.25
2018-02-05T12:27:40.900Z,17.53
2018-02-05T12:30:09.401Z,12.07
2018-02-05T12:32:37.001Z,18.43
2018-02-05T12:35:04.617Z,19.40
2018-02-05T12:37:32.232Z,14.43
2018-02-05T12:39:59.799Z,16.37
2018-02-05T12:42:27.716Z,18.55
2018-02-05T12:44:55.340Z,18.75
2018-02-05T12:47:22.953Z,17.60
2018-02-05T12:49:50.528Z,16.77
2018-02-05T12:52:18.503Z,19.60
2018-02-05T12:54:46.913Z,15.67
2018-02-05T12:57:15.237Z,19.98
2018-02-05T12:59:48.368Z,19.07
2018-02-05T13:02:16.315Z,16.17
2018-02-05T13:07:49.715Z,14.97
2018-02-05T13:10:18.259Z,12.63
2018-02-05T13:12:46.393Z,14.47
2018-02-05T13:15:14.004Z,14.30
2018-02-05T13:17:41.646Z,13.73
2018-02-05T13:20:09.992Z,13.87
2018-02-05T13:22:39.473Z,13.40
2018-02-05T13:25:08.256Z,14.10
2018-02-05T13:27:35.822Z,14.47
2018-02-05T13:30:03.438Z,17.40
2018-02-05T13:32:32.914Z,15.03
2018-02-05T13:35:00.592Z,16.98
2018-02-05T13:37:28.305Z,13.93
2018-02-05T13:39:55.917Z,13.40
2018-02-05T13:42:23.505Z,15.37
2018-02-05T13:44:51.168Z,15.38
2018-02-05T13:47:18.774Z,20.70
2018-02-05T13:49:46.322Z,15.17
2018-02-05T13:52:13.982Z,16.98
2018-02-05T13:54:41.592Z,14.07
2018-02-05T13:57:09.794Z,18.27
2018-02-05T13:59:37.378Z,16.62
2018-02-05T14:02:04.972Z,16.50
2018-02-05T14:04:32.530Z,18.30
2018-02-05T14:07:00.122Z,20.00
2018-02-05T14:09:28.420Z,21.47
2018-02-05T14:11:56.024Z,26.70
2018-02-05T14:14:23.613Z,29.90
2018-02-05T14:16:51.223Z,24.40
2018-02-05T14:19:19.971Z,35.40
2018-02-05T14:21:47.588Z,34.20
2018-02-05T14:24:15.777Z,31.73
2018-02-05T14:26:44.500Z,36.10
2018-02-05T14:29:12.152Z,26.87
2018-02-05T14:31:40.716Z,28.48
2018-02-05T14:34:09.199Z,35.93
2018-02-05T14:36:37.805Z,29.50
2018-02-05T14:39:05.434Z,31.27
2018-02-05T14:41:33.041Z,33.93
2018-02-05T14:44:00.592Z,28.13
2018-02-05T14:46:28.199Z,26.62
2018-02-05T14:48:57.096Z,26.40
2018-02-05T14:51:24.686Z,25.27
2018-02-05T14:53:52.239Z,26.73
2018-02-05T14:56:19.848Z,25.60
2018-02-05T14:58:47.398Z,27.57
2018-02-05T15:01:15.243Z,22.10
2018-02-05T15:03:43.023Z,28.00
2018-02-05T15:06:10.964Z,21.63
2018-02-05T15:08:38.569Z,26.93
2018-02-05T15:11:06.426Z,23.37
2018-02-05T15:13:33.984Z,30.00
2018-02-05T15:16:02.007Z,27.27
2018-02-05T15:18:29.921Z,22.23
2018-02-05T15:20:58.042Z,22.93
2018-02-05T15:23:25.864Z,36.53
2018-02-05T15:25:53.479Z,29.03
2018-02-05T15:28:21.381Z,31.77
2018-02-05T15:30:50.643Z,32.87
2018-02-05T15:33:19.390Z,31.17
2018-02-05T15:35:47.988Z,28.50
2018-02-05T15:38:15.959Z,34.63
2018-02-05T15:40:44.139Z,35.03
2018-02-05T15:43:12.268Z,42.10
2018-02-05T15:45:39.869Z,35.90
2018-02-05T15:48:08.767Z,38.13
2018-02-05T15:50:36.671Z,35.57
2018-02-05T15:53:05.114Z,30.60
2018-02-05T15:55:32.746Z,37.57
2018-02-05T15:58:00.687Z,34.13
2018-02-05T16:00:28.617Z,30.97
2018-02-05T16:02:56.180Z,32.73
2018-02-05T16:05:23.787Z,35.33
2018-02-05T16:07:51.380Z,40.17
2018-02-05T16:10:19.208Z,36.83
2018-02-05T16:12:46.811Z,40.23
2018-02-05T16:15:14.371Z,36.20
2018-02-05T16:17:42.014Z,35.50
2018-02-05T16:20:09.581Z,29.83
2018-02-05T16:22:37.131Z,46.60
2018-02-05T16:25:04.833Z,55.83
2018-02-05T16:27:32.667Z,43.80
2018-02-05T16:30:00.258Z,45.57
2018-02-05T16:32:27.811Z,43.30
2018-02-05T16:34:55.408Z,48.13
2018-02-05T16:37:24.799Z,42.67
2018-02-05T16:39:52.809Z,43.90
2018-02-05T16:42:21.220Z,52.40
2018-02-05T16:44:49.196Z,61.80
2018-02-05T16:47:16.791Z,59.07
2018-02-05T16:49:44.347Z,67.03
2018-02-05T16:52:12.798Z,77.67
2018-02-05T16:54:41.204Z,93.10
2018-02-05T16:57:09.144Z,96.30
2018-02-05T16:59:36.744Z,93.20
2018-02-05T17:02:04.670Z,74.03
2018-02-05T17:04:32.636Z,80.97
2018-02-05T17:07:00.966Z,72.13
2018-02-05T17:09:28.576Z,56.67
2018-02-05T17:11:58.283Z,67.43
2018-02-05T17:14:26.593Z,69.80
2018-02-05T17:16:54.668Z,60.67
2018-02-05T17:19:22.615Z,77.03
2018-02-05T17:21:51.113Z,66.40
2018-02-05T17:24:18.708Z,78.27
2018-02-05T17:26:48.236Z,66.03
2018-02-05T17:29:15.848Z,63.17
2018-02-05T17:31:43.668Z,59.57
2018-02-05T17:34:11.532Z,62.23
2018-02-05T17:36:39.792Z,55.33
2018-02-05T17:39:08.279Z,54.10
2018-02-05T17:41:35.884Z,60.73
2018-02-05T17:44:03.946Z,56.10
2018-02-05T17:46:31.505Z,73.57
2018-02-05T17:48:59.972Z,68.07
2018-02-05T17:51:27.583Z,60.43
2018-02-05T17:53:55.152Z,61.60
2018-02-05T17:56:23.160Z,75.57
2018-02-05T17:58:52.683Z,74.83
2018-02-05T18:01:20.666Z,74.07
2018-02-05T18:03:48.568Z,73.27
2018-02-05T18:06:16.896Z,71.57
2018-02-05T18:08:45.521Z,73.00
2018-02-05T18:11:14.682Z,93.80
2018-02-05T18:13:42.276Z,90.57
2018-02-05T18:16:10.815Z,95.53
2018-02-05T18:18:38.953Z,99.60
2018-02-05T18:21:06.992Z,103.93
2018-02-05T18:23:35.036Z,112.17
2018-02-05T18:26:03.312Z,125.50
2018-02-05T18:28:31.676Z,120.93
2018-02-05T18:31:00.224Z,158.03
2018-02-05T18:33:27.821Z,132.10
2018-02-05T18:35:56.815Z,127.77
2018-02-05T18:38:24.402Z,125.70
2018-02-05T18:40:52.253Z,131.03
2018-02-05T18:43:20.020Z,123.00
2018-02-05T18:45:48.190Z,137.00
2018-02-05T18:48:16.204Z,122.13
2018-02-05T18:50:45.384Z,110.47
2018-02-05T18:53:13.753Z,99.03
2018-02-05T18:55:42.806Z,107.27
2018-02-05T18:58:11.116Z,97.40
2018-02-05T19:00:49.335Z,96.03
2018-02-05T19:03:18.149Z,91.27
2018-02-05T19:05:46.592Z,84.83
2018-02-05T19:08:14.732Z,96.77
2018-02-05T19:10:44.271Z,92.30
2018-02-05T19:13:12.361Z,96.07
2018-02-05T19:15:41.455Z,83.03
2018-02-05T19:18:09.791Z,104.70
2018-02-05T19:20:38.516Z,103.90
2018-02-05T19:23:07.747Z,114.60
2018-02-05T19:25:36.916Z,125.17
2018-02-05T19:28:05.580Z,122.47
2018-02-05T19:30:33.874Z,144.43
2018-02-05T19:33:02.864Z,117.77
2018-02-05T19:35:31.349Z,104.53
2018-02-05T19:38:03.615Z,102.00
2018-02-05T19:40:32.436Z,121.07
2018-02-05T19:43:02.167Z,122.60
2018-02-05T19:45:30.688Z,130.57
2018-02-05T19:47:59.247Z,138.40
2018-02-05T19:50:28.276Z,128.77
2018-02-05T19:52:58.905Z,129.10
2018-02-05T19:55:29.148Z,122.70
2018-02-05T19:57:59.246Z,120.37
2018-02-05T20:00:27.956Z,115.30
2018-02-05T20:02:56.972Z,122.83
2018-02-05T20:05:26.839Z,107.33
2018-02-05T20:07:56.137Z,105.33
2018-02-05T20:10:24.514Z,103.07
2018-02-05T20:12:53.807Z,107.87
2018-02-05T20:15:23.025Z,91.30
2018-02-05T20:17:53.161Z,99.77
2018-02-05T20:20:23.561Z,91.07
2018-02-05T20:22:53.473Z,82.70
2018-02-05T20:25:21.739Z,83.10
2018-02-05T20:27:49.824Z,79.80
2018-02-05T20:30:17.787Z,75.73
2018-02-05T20:32:45.879Z,84.47
2018-02-05T20:35:15.889Z,80.90
2018-02-05T20:37:45.264Z,72.70
2018-02-05T20:40:14.570Z,71.83
2018-02-05T20:42:43.689Z,78.87
2018-02-05T20:45:12.955Z,72.63
2018-02-05T20:47:46.298Z,73.73
2018-02-05T20:50:14.545Z,79.37
2018-02-05T20:52:43.824Z,79.53
2018-02-05T20:55:12.426Z,80.60
2018-02-05T20:57:40.346Z,79.53
2018-02-05T21:00:08.210Z,69.33
2018-02-05T21:02:36.294Z,79.00
2018-02-05T21:05:04.187Z,80.60
2018-02-05T21:07:32.365Z,84.73
2018-02-05T21:10:00.430Z,81.50
2018-02-05T21:12:28.554Z,83.53
2018-02-05T21:14:59.190Z,74.10
2018-02-05T21:17:27.361Z,73.80
2018-02-05T21:19:55.669Z,74.37
2018-02-05T21:22:23.262Z,74.00
2018-02-05T21:24:52.851Z,72.83
2018-02-05T21:27:20.452Z,73.30
2018-02-05T21:29:48.041Z,79.30
2018-02-05T21:32:16.297Z,83.90
2018-02-05T21:34:43.867Z,72.47
2018-02-05T21:37:11.472Z,79.97
2018-02-05T21:39:39.034Z,79.33
2018-02-05T21:42:07.879Z,81.17
2018-02-05T21:44:35.467Z,78.60
2018-02-05T21:47:03.028Z,82.67
2018-02-05T21:49:30.611Z,79.43
2018-02-05T21:51:58.172Z,79.40
2018-02-05T21:54:25.777Z,77.47
2018-02-05T21:56:53.319Z,70.23
2018-02-05T21:59:20.927Z,71.73
2018-02-05T22:01:48.467Z,70.07
2018-02-05T22:04:16.468Z,67.33
2018-02-05T22:06:44.011Z,73.00
2018-02-05T22:09:11.555Z,61.03
2018-02-05T22:11:39.152Z,72.60
2018-02-05T22:14:06.763Z,75.33
2018-02-05T22:16:34.719Z,70.90
2018-02-05T22:19:02.310Z,68.10
2018-02-05T22:21:29.872Z,72.27
2018-02-05T22:23:57.425Z,77.70
2018-02-05T22:26:25.014Z,69.70
2018-02-05T22:28:52.568Z,88.80
2018-02-05T22:31:20.475Z,76.00
2018-02-05T22:33:48.428Z,69.17
2018-02-05T22:36:15.971Z,79.13
2018-02-05T22:38:44.144Z,77.83
2018-02-05T22:41:11.735Z,75.97
2018-02-05T22:43:39.324Z,85.07
2018-02-05T22:46:06.908Z,83.43
2018-02-05T22:48:34.495Z,76.33
2018-02-05T22:51:02.039Z,77.07
2018-02-05T22:53:29.652Z,87.20
2018-02-05T22:55:57.196Z,77.63
2018-02-05T22:58:24.803Z,74.83
2018-02-05T23:00:52.360Z,70.53
2018-02-05T23:03:19.955Z,71.10
2018-02-05T23:05:47.960Z,69.17
2018-02-05T23:08:15.499Z,84.73
2018-02-05T23:10:43.062Z,99.83
2018-02-05T23:13:10.657Z,100.80
2018-02-05T23:15:38.207Z,110.87
2018-02-05T23:18:05.812Z,109.67
2018-02-05T23:20:33.418Z,104.13
2018-02-05T23:23:00.964Z,107.47
2018-02-05T23:25:29.148Z,96.23
2018-02-05T23:27:56.743Z,101.33
2018-02-05T23:30:24.276Z,93.87
2018-02-05T23:32:51.876Z,109.90
2018-02-05T23:35:19.473Z,96.73
2018-02-05T23:37:47.029Z,105.77
2018-02-05T23:40:14.628Z,105.87
2018-02-05T23:42:42.880Z,108.63
2018-02-05T23:45:10.480Z,116.07
2018-02-05T23:47:38.930Z,111.00
2018-02-05T23:50:06.982Z,102.00
2018-02-05T23:52:34.527Z,103.30
2018-02-05T23:55:02.135Z,107.47
2018-02-05T23:57:29.689Z,108.50
2018-02-05T23:59:57.243Z,94.30
